createdAt,value
2019-04-28T00:01:38.486Z,8.55
2019-04-28T00:04:06.912Z,8.56
2019-04-28T00:06:36.251Z,8.51
2019-04-28T00:09:06.890Z,8.11
2019-04-28T00:11:35.503Z,8.41
2019-04-28T00:14:03.877Z,8.39
2019-04-28T00:16:32.271Z,8.32
2019-04-28T00:19:01.217Z,8.24
2019-04-28T00:21:43.207Z,9.02
2019-04-28T00:24:25.428Z,9.13
2019-04-28T00:26:55.387Z,9.21
2019-04-28T00:29:23.823Z,8.97
2019-04-28T00:31:52.184Z,9.28
2019-04-28T00:34:21.373Z,9.29
2019-04-28T00:36:51.558Z,9.36
2019-04-28T00:39:21.058Z,9.31
2019-04-28T00:41:51.607Z,9.51
2019-04-28T00:44:21.782Z,9.42
2019-04-28T00:46:51.176Z,9.44
2019-04-28T00:49:23.290Z,9.42
2019-04-28T00:51:51.833Z,9.55
2019-04-28T00:54:21.756Z,8.55
2019-04-28T00:56:51.721Z,8.56
2019-04-28T00:59:21.691Z,8.57
2019-04-28T01:01:58.229Z,8.55
2019-04-28T01:04:26.528Z,8.53
2019-04-28T01:06:54.832Z,8.66
2019-04-28T01:09:23.299Z,8.63
2019-04-28T01:11:53.447Z,8.66
2019-04-28T01:14:22.078Z,8.69
2019-04-28T01:16:52.017Z,8.69
2019-04-28T01:19:25.168Z,8.68
2019-04-28T01:21:57.708Z,8.69
2019-04-28T01:24:26.093Z,8.66
2019-04-28T01:26:56.154Z,8.69
2019-04-28T01:29:24.474Z,8.69
2019-04-28T01:32:10.689Z,8.68
2019-04-28T01:34:40.002Z,8.67
2019-04-28T01:37:09.721Z,8.69
2019-04-28T01:39:41.033Z,8.67
2019-04-28T01:42:10.521Z,8.72
2019-04-28T01:44:39.545Z,8.73
2019-04-28T01:47:10.471Z,8.76
2019-04-28T01:49:40.572Z,8.74
2019-04-28T01:52:10.429Z,8.73
2019-04-28T01:54:40.253Z,8.72
2019-04-28T01:57:10.149Z,8.69
2019-04-28T01:59:40.277Z,8.74
2019-04-28T02:02:10.173Z,8.68
2019-04-28T02:04:40.212Z,8.72
2019-04-28T02:07:10.896Z,8.69
2019-04-28T02:09:39.552Z,8.64
2019-04-28T02:12:07.919Z,8.55
2019-04-28T02:14:36.578Z,8.53
2019-04-28T02:17:05.215Z,8.53
2019-04-28T02:19:33.608Z,8.48
2019-04-28T02:22:21.471Z,8.55
2019-04-28T02:24:50.512Z,8.61
2019-04-28T02:27:20.368Z,8.62
2019-04-28T02:29:49.889Z,8.60
2019-04-28T02:32:23.853Z,8.67
2019-04-28T02:34:50.683Z,8.72
2019-04-28T02:37:20.567Z,8.67
2019-04-28T02:39:50.556Z,8.66
2019-04-28T02:42:20.860Z,8.67
2019-04-28T02:44:50.454Z,8.67
2019-04-28T02:47:21.898Z,8.68
2019-04-28T02:49:50.924Z,8.67
2019-04-28T02:52:30.907Z,8.69
2019-04-28T02:55:03.068Z,8.70
2019-04-28T02:57:30.857Z,8.70
2019-04-28T03:00:00.471Z,8.62
2019-04-28T03:02:31.651Z,8.68
2019-04-28T03:05:00.314Z,8.65
2019-04-28T03:07:31.234Z,9.46
2019-04-28T03:10:03.219Z,8.63
2019-04-28T03:12:31.397Z,8.61
2019-04-28T03:15:00.623Z,8.61
2019-04-28T03:17:31.047Z,8.60
2019-04-28T03:20:01.098Z,8.65
2019-04-28T03:22:32.933Z,8.57
2019-04-28T03:25:01.096Z,8.51
2019-04-28T03:27:36.970Z,8.52
2019-04-28T03:30:13.356Z,8.54
2019-04-28T03:32:52.444Z,8.52
2019-04-28T03:35:13.584Z,8.54
2019-04-28T03:37:42.155Z,8.57
2019-04-28T03:40:11.483Z,8.50
2019-04-28T03:42:41.104Z,8.45
2019-04-28T03:45:13.340Z,8.70
2019-04-28T03:47:41.655Z,8.41
2019-04-28T03:50:10.599Z,8.39
2019-04-28T03:52:41.445Z,8.35
2019-04-28T03:55:11.096Z,8.35
2019-04-28T03:57:41.269Z,8.40
2019-04-28T04:00:11.336Z,8.40
2019-04-28T04:02:41.193Z,8.37
2019-04-28T04:05:11.126Z,8.40
2019-04-28T04:07:42.795Z,8.34
2019-04-28T04:10:16.091Z,8.35
2019-04-28T04:12:46.342Z,8.27
2019-04-28T04:15:24.598Z,8.28
2019-04-28T04:18:03.610Z,8.17
2019-04-28T04:20:32.204Z,8.10
2019-04-28T04:23:01.413Z,8.09
2019-04-28T04:25:31.393Z,8.05
2019-04-28T04:28:03.453Z,7.98
2019-04-28T04:30:31.097Z,7.90
2019-04-28T04:33:01.239Z,7.91
2019-04-28T04:35:31.767Z,8.17
2019-04-28T04:38:00.773Z,8.06
2019-04-28T04:40:31.756Z,8.03
2019-04-28T04:43:01.626Z,8.12
2019-04-28T04:45:30.495Z,8.20
2019-04-28T04:48:00.628Z,8.25
2019-04-28T04:50:31.296Z,8.23
2019-04-28T04:53:02.327Z,8.26
2019-04-28T04:55:31.593Z,8.37
2019-04-28T04:58:00.903Z,8.31
2019-04-28T05:00:46.765Z,8.32
2019-04-28T05:03:22.878Z,8.39
2019-04-28T05:05:51.174Z,8.33
2019-04-28T05:08:20.294Z,8.35
2019-04-28T05:10:50.292Z,8.22
2019-04-28T05:13:20.062Z,8.27
2019-04-28T05:15:50.697Z,8.32
2019-04-28T05:18:19.978Z,8.32
2019-04-28T05:20:50.335Z,8.35
2019-04-28T05:23:26.202Z,8.35
2019-04-28T05:25:54.526Z,8.41
2019-04-28T05:28:22.827Z,8.53
2019-04-28T05:30:51.122Z,8.65
2019-04-28T05:33:31.994Z,8.59
2019-04-28T05:35:59.227Z,8.47
2019-04-28T05:38:30.369Z,8.72
2019-04-28T05:41:02.382Z,8.61
2019-04-28T05:43:29.925Z,8.81
2019-04-28T05:46:00.285Z,9.00
2019-04-28T05:48:36.654Z,8.90
2019-04-28T05:51:06.670Z,8.82
2019-04-28T05:53:36.596Z,9.06
2019-04-28T05:56:21.378Z,9.10
2019-04-28T05:58:51.314Z,8.93
2019-04-28T06:01:21.338Z,8.98
2019-04-28T06:03:49.775Z,8.81
2019-04-28T06:06:20.437Z,8.79
2019-04-28T06:09:05.685Z,8.83
2019-04-28T06:11:39.809Z,8.76
2019-04-28T06:14:09.941Z,8.92
2019-04-28T06:16:40.436Z,8.80
2019-04-28T06:19:10.283Z,8.97
2019-04-28T06:21:38.770Z,9.32
2019-04-28T06:24:07.063Z,9.15
2019-04-28T06:26:35.363Z,9.24
2019-04-28T06:29:03.679Z,9.10
2019-04-28T06:31:32.290Z,9.52
2019-04-28T06:34:00.627Z,9.41
2019-04-28T06:36:29.261Z,9.38
2019-04-28T06:38:57.550Z,9.46
2019-04-28T06:41:25.869Z,9.28
2019-04-28T06:43:54.162Z,9.36
2019-04-28T06:46:22.892Z,9.67
2019-04-28T06:48:51.183Z,9.63
2019-04-28T06:51:19.511Z,10.08
2019-04-28T06:53:47.810Z,9.81
2019-04-28T06:56:16.105Z,9.86
2019-04-28T06:58:44.428Z,9.53
2019-04-28T07:01:13.081Z,9.46
2019-04-28T07:03:41.399Z,9.60
2019-04-28T07:06:09.691Z,9.78
2019-04-28T07:08:38.024Z,9.79
2019-04-28T07:11:06.711Z,10.32
2019-04-28T07:13:35.080Z,10.34
2019-04-28T07:16:03.463Z,10.03
2019-04-28T07:18:31.764Z,10.04
2019-04-28T07:21:01.733Z,10.10
2019-04-28T07:23:31.398Z,9.88
2019-04-28T07:25:59.710Z,10.17
2019-04-28T07:28:28.003Z,10.14
2019-04-28T07:30:56.838Z,10.34
2019-04-28T07:33:35.513Z,10.65
2019-04-28T07:35:55.442Z,10.83
2019-04-28T07:38:23.755Z,10.26
2019-04-28T07:40:52.176Z,10.37
2019-04-28T07:43:20.575Z,10.29
2019-04-28T07:45:48.888Z,10.29
2019-04-28T07:48:17.558Z,10.11
2019-04-28T07:50:45.846Z,10.38
2019-04-28T07:53:15.867Z,10.99
2019-04-28T07:55:44.229Z,11.59
2019-04-28T07:58:12.542Z,10.98
2019-04-28T08:00:40.907Z,11.29
2019-04-28T08:03:09.206Z,11.32
2019-04-28T08:05:37.517Z,11.37
2019-04-28T08:08:05.808Z,11.39
2019-04-28T08:10:34.428Z,10.97
2019-04-28T08:13:02.876Z,10.77
2019-04-28T08:15:31.425Z,10.39
2019-04-28T08:18:00.079Z,10.39
2019-04-28T08:20:28.370Z,10.31
2019-04-28T08:22:56.678Z,10.27
2019-04-28T08:25:25.440Z,10.15
2019-04-28T08:27:53.848Z,10.36
2019-04-28T08:30:22.605Z,10.26
2019-04-28T08:33:04.924Z,10.63
2019-04-28T08:35:33.725Z,10.18
2019-04-28T08:38:02.399Z,10.10
2019-04-28T08:40:30.766Z,10.31
2019-04-28T08:42:59.024Z,10.27
2019-04-28T08:45:27.329Z,10.02
2019-04-28T08:47:57.941Z,10.08
2019-04-28T08:50:25.674Z,9.98
2019-04-28T08:52:54.028Z,9.94
2019-04-28T08:55:22.325Z,10.36
2019-04-28T08:57:50.648Z,10.51
2019-04-28T09:00:20.755Z,10.42
2019-04-28T09:02:49.139Z,10.32
2019-04-28T09:05:17.434Z,10.48
2019-04-28T09:07:47.389Z,10.07
2019-04-28T09:10:15.756Z,10.24
2019-04-28T09:12:44.072Z,10.20
2019-04-28T09:15:12.639Z,10.45
2019-04-28T09:17:40.974Z,10.90
2019-04-28T09:20:10.109Z,11.18
2019-04-28T09:22:38.550Z,11.19
2019-04-28T09:25:07.439Z,11.57
2019-04-28T09:27:35.725Z,11.56
2019-04-28T09:30:05.874Z,12.25
2019-04-28T09:32:34.678Z,12.26
2019-04-28T09:35:03.985Z,11.77
2019-04-28T09:37:32.227Z,11.18
2019-04-28T09:40:04.995Z,11.16
2019-04-28T09:42:34.957Z,11.17
2019-04-28T09:45:21.399Z,11.00
2019-04-28T09:47:49.720Z,10.91
2019-04-28T09:50:18.021Z,10.80
2019-04-28T09:52:48.739Z,10.88
2019-04-28T09:55:16.433Z,11.11
2019-04-28T09:57:44.821Z,11.19
2019-04-28T10:00:13.254Z,11.61
2019-04-28T10:02:41.876Z,11.61
2019-04-28T10:05:11.064Z,11.32
2019-04-28T10:07:39.364Z,11.79
2019-04-28T10:10:08.735Z,12.41
2019-04-28T10:12:37.098Z,11.96
2019-04-28T10:15:09.929Z,12.80
2019-04-28T10:17:38.417Z,12.30
2019-04-28T10:20:08.469Z,12.93
2019-04-28T10:22:36.884Z,12.42
2019-04-28T10:25:07.820Z,11.89
2019-04-28T10:27:36.448Z,11.89
2019-04-28T10:30:09.542Z,11.70
2019-04-28T10:32:37.837Z,11.45
2019-04-28T10:35:08.708Z,11.31
2019-04-28T10:37:37.389Z,11.64
2019-04-28T10:40:14.671Z,11.66
2019-04-28T10:42:42.980Z,12.06
2019-04-28T10:45:13.097Z,11.70
2019-04-28T10:47:41.737Z,11.99
2019-04-28T10:50:10.762Z,13.02
2019-04-28T10:52:39.079Z,13.21
2019-04-28T10:55:08.209Z,12.67
2019-04-28T10:57:36.533Z,12.36
2019-04-28T11:00:08.596Z,12.11
2019-04-28T11:02:36.902Z,12.14
2019-04-28T11:05:09.108Z,11.72
2019-04-28T11:07:37.663Z,11.65
2019-04-28T11:10:09.724Z,11.94
2019-04-28T11:12:38.094Z,11.82
2019-04-28T11:15:09.714Z,12.25
2019-04-28T11:17:38.391Z,12.59
2019-04-28T11:20:07.292Z,12.34
2019-04-28T11:22:35.594Z,12.84
2019-04-28T11:25:06.428Z,12.67
2019-04-28T11:27:34.741Z,12.58
2019-04-28T11:30:04.482Z,12.83
2019-04-28T11:32:32.779Z,13.12
2019-04-28T11:35:21.446Z,12.20
2019-04-28T11:37:41.559Z,13.07
2019-04-28T11:40:09.923Z,13.15
2019-04-28T11:42:38.255Z,12.78
2019-04-28T11:45:07.375Z,12.61
2019-04-28T11:47:35.761Z,12.18
2019-04-28T11:50:04.210Z,12.18
2019-04-28T11:52:32.507Z,12.77
2019-04-28T11:55:01.434Z,12.40
2019-04-28T11:57:29.720Z,12.76
2019-04-28T11:59:58.398Z,13.16
2019-04-28T12:02:26.779Z,13.10
2019-04-28T12:04:56.731Z,13.10
2019-04-28T12:07:25.482Z,12.63
2019-04-28T12:10:04.467Z,12.95
2019-04-28T12:12:46.015Z,13.20
2019-04-28T12:15:32.013Z,13.59
2019-04-28T12:18:04.682Z,14.14
2019-04-28T12:20:33.112Z,14.56
2019-04-28T12:23:01.485Z,14.58
2019-04-28T12:25:29.825Z,14.27
2019-04-28T12:27:58.619Z,14.54
2019-04-28T12:30:26.936Z,14.22
2019-04-28T12:32:55.588Z,14.21
2019-04-28T12:35:23.925Z,14.23
2019-04-28T12:37:52.227Z,14.73
2019-04-28T12:40:22.607Z,14.85
2019-04-28T12:42:50.584Z,14.97
2019-04-28T12:45:18.948Z,13.90
2019-04-28T12:47:47.269Z,14.62
2019-04-28T12:50:23.184Z,15.00
2019-04-28T12:52:52.059Z,16.71
2019-04-28T12:55:20.363Z,17.17
2019-04-28T12:57:48.691Z,16.28
2019-04-28T13:00:28.042Z,16.24
2019-04-28T13:03:15.873Z,15.79
2019-04-28T13:05:45.993Z,15.20
2019-04-28T13:08:14.732Z,16.16
2019-04-28T13:10:43.107Z,16.90
2019-04-28T13:13:11.414Z,15.83
2019-04-28T13:15:40.274Z,15.74
2019-04-28T13:18:08.647Z,17.06
2019-04-28T13:20:36.977Z,17.79
2019-04-28T13:23:05.342Z,16.85
2019-04-28T13:25:33.649Z,16.88
2019-04-28T13:28:01.956Z,16.54
2019-04-28T13:30:30.259Z,16.72
2019-04-28T13:32:58.850Z,17.72
2019-04-28T13:35:27.214Z,18.32
2019-04-28T13:37:55.533Z,18.27
2019-04-28T13:40:28.038Z,17.12
2019-04-28T13:42:56.376Z,19.38
2019-04-28T13:45:26.325Z,18.28
2019-04-28T13:47:54.646Z,17.69
2019-04-28T13:50:25.834Z,16.97
2019-04-28T13:52:54.190Z,15.84
2019-04-28T13:55:27.178Z,16.32
2019-04-28T13:57:56.891Z,16.13
2019-04-28T14:00:33.038Z,16.61
2019-04-28T14:03:02.966Z,15.79
2019-04-28T14:05:36.317Z,16.78
2019-04-28T14:08:04.579Z,17.30
2019-04-28T14:10:32.896Z,18.33
2019-04-28T14:13:01.210Z,17.40
2019-04-28T14:15:29.751Z,17.99
2019-04-28T14:17:58.312Z,18.16
2019-04-28T14:20:26.782Z,17.66
2019-04-28T14:22:55.222Z,18.19
2019-04-28T14:25:23.952Z,17.50
2019-04-28T14:27:52.280Z,17.77
2019-04-28T14:30:20.746Z,17.15
2019-04-28T14:32:49.334Z,17.45
2019-04-28T14:35:18.097Z,16.23
2019-04-28T14:37:46.768Z,17.08
2019-04-28T14:40:15.473Z,17.75
2019-04-28T14:42:43.782Z,16.58
2019-04-28T14:45:12.779Z,16.44
2019-04-28T14:47:41.088Z,18.09
2019-04-28T14:50:09.803Z,17.16
2019-04-28T14:52:38.141Z,18.15
2019-04-28T14:55:07.445Z,18.36
2019-04-28T14:57:35.770Z,17.36
2019-04-28T15:00:06.480Z,16.63
2019-04-28T15:02:45.587Z,15.97
2019-04-28T15:05:15.721Z,17.06
2019-04-28T15:07:54.387Z,17.71
2019-04-28T15:10:42.676Z,18.51
2019-04-28T15:13:10.986Z,17.32
2019-04-28T15:15:39.425Z,19.14
2019-04-28T15:18:07.852Z,20.01
2019-04-28T15:20:36.144Z,19.00
2019-04-28T15:23:04.943Z,17.72
2019-04-28T15:25:33.255Z,17.72
2019-04-28T15:28:01.556Z,16.02
2019-04-28T15:30:29.947Z,18.33
2019-04-28T15:32:58.307Z,16.36
2019-04-28T15:35:26.684Z,16.22
2019-04-28T15:37:54.978Z,19.29
2019-04-28T15:40:23.375Z,20.21
2019-04-28T15:42:51.787Z,19.39
2019-04-28T15:45:20.487Z,17.42
2019-04-28T15:47:48.956Z,17.83
2019-04-28T15:50:17.311Z,16.70
2019-04-28T15:52:45.609Z,18.18
2019-04-28T15:55:15.559Z,18.50
2019-04-28T15:57:44.275Z,18.10
2019-04-28T16:00:14.647Z,19.17
2019-04-28T16:02:42.935Z,19.37
2019-04-28T16:05:11.474Z,18.09
2019-04-28T16:07:39.860Z,19.45
2019-04-28T16:10:08.592Z,18.57
2019-04-28T16:12:36.978Z,19.14
2019-04-28T16:15:07.467Z,19.10
2019-04-28T16:17:36.176Z,16.86
2019-04-28T16:20:06.207Z,16.35
2019-04-28T16:22:34.601Z,16.08
2019-04-28T16:25:03.332Z,15.90
2019-04-28T16:27:31.653Z,15.61
2019-04-28T16:29:59.954Z,16.07
2019-04-28T16:32:28.249Z,16.80
2019-04-28T16:34:56.568Z,17.74
2019-04-28T16:37:38.217Z,17.38
2019-04-28T16:39:55.853Z,16.28
2019-04-28T16:42:28.547Z,15.58
2019-04-28T16:45:08.108Z,17.15
2019-04-28T16:47:36.977Z,16.05
2019-04-28T16:50:06.879Z,15.58
2019-04-28T16:52:35.192Z,15.19
2019-04-28T16:55:15.425Z,15.20
2019-04-28T16:57:45.375Z,14.81
2019-04-28T17:00:15.477Z,14.81
2019-04-28T17:02:44.660Z,14.81
2019-04-28T17:05:13.277Z,14.71
2019-04-28T17:07:52.553Z,15.77
2019-04-28T17:10:12.346Z,14.66
2019-04-28T17:12:40.654Z,14.57
2019-04-28T17:15:09.304Z,14.34
2019-04-28T17:17:37.601Z,13.83
2019-04-28T17:20:07.190Z,14.00
2019-04-28T17:22:35.515Z,14.50
2019-04-28T17:25:05.982Z,14.95
2019-04-28T17:27:34.350Z,15.30
2019-04-28T17:30:03.286Z,14.32
2019-04-28T17:32:31.602Z,14.81
2019-04-28T17:34:59.893Z,14.43
2019-04-28T17:37:28.270Z,14.02
2019-04-28T17:39:56.567Z,13.41
2019-04-28T17:42:24.967Z,13.09
2019-04-28T17:44:53.716Z,12.88
2019-04-28T17:47:22.961Z,12.84
2019-04-28T17:49:51.499Z,12.79
2019-04-28T17:52:19.792Z,12.77
2019-04-28T17:54:48.336Z,12.54
2019-04-28T17:57:16.706Z,12.49
2019-04-28T17:59:46.071Z,12.25
2019-04-28T18:02:32.490Z,12.27
2019-04-28T18:05:05.874Z,12.23
2019-04-28T18:07:35.877Z,11.98
2019-04-28T18:10:08.481Z,11.91
2019-04-28T18:12:37.252Z,11.91
2019-04-28T18:15:12.190Z,11.68
2019-04-28T18:17:48.068Z,11.58
2019-04-28T18:20:16.925Z,11.54
2019-04-28T18:22:45.243Z,11.48
2019-04-28T18:25:14.217Z,11.54
2019-04-28T18:27:42.530Z,11.46
2019-04-28T18:30:12.626Z,11.41
2019-04-28T18:35:26.349Z,11.38
2019-04-28T18:38:12.397Z,11.38
2019-04-28T18:40:51.203Z,11.32
2019-04-28T18:43:23.840Z,11.32
2019-04-28T18:45:53.305Z,11.36
2019-04-28T18:48:21.701Z,11.39
2019-04-28T18:50:50.443Z,11.30
2019-04-28T18:53:18.749Z,11.27
2019-04-28T18:55:47.093Z,11.25
2019-04-28T18:58:15.391Z,11.27
2019-04-28T19:00:45.375Z,11.29
2019-04-28T19:03:13.707Z,11.24
2019-04-28T19:05:43.663Z,11.26
2019-04-28T19:08:13.602Z,11.15
2019-04-28T19:10:55.796Z,11.13
2019-04-28T19:13:43.693Z,11.15
2019-04-28T19:16:13.639Z,11.11
2019-04-28T19:18:55.380Z,11.13
2019-04-28T19:21:23.786Z,11.09
2019-04-28T19:23:54.159Z,10.99
2019-04-28T19:26:22.682Z,10.97
2019-04-28T19:28:51.385Z,10.95
2019-04-28T19:31:19.711Z,10.96
2019-04-28T19:33:48.150Z,10.94
2019-04-28T19:36:16.576Z,10.89
2019-04-28T19:38:45.035Z,10.79
2019-04-28T19:41:13.709Z,10.76
2019-04-28T19:43:42.131Z,10.84
2019-04-28T19:46:12.117Z,10.75
2019-04-28T19:48:40.763Z,10.70
2019-04-28T19:51:09.187Z,10.68
2019-04-28T19:53:37.488Z,10.75
2019-04-28T19:56:07.446Z,10.73
2019-04-28T19:58:37.430Z,10.63
2019-04-28T20:01:07.455Z,10.63
2019-04-28T20:03:35.819Z,10.66
2019-04-28T20:06:04.183Z,10.58
2019-04-28T20:08:32.555Z,10.55
2019-04-28T20:11:00.846Z,10.59
2019-04-28T20:13:31.455Z,10.45
2019-04-28T20:15:59.258Z,10.39
2019-04-28T20:18:29.538Z,10.33
2019-04-28T20:20:58.007Z,10.25
2019-04-28T20:23:26.333Z,10.22
2019-04-28T20:25:54.673Z,10.22
2019-04-28T20:28:23.429Z,10.16
2019-04-28T20:30:51.745Z,10.17
2019-04-28T20:33:20.351Z,10.08
2019-04-28T20:35:50.383Z,10.04
2019-04-28T20:38:26.485Z,10.05
2019-04-28T20:40:56.442Z,10.06
2019-04-28T20:43:26.602Z,10.06
2019-04-28T20:45:54.925Z,10.03
2019-04-28T20:48:23.684Z,10.00
2019-04-28T20:50:52.028Z,10.00
2019-04-28T20:53:20.426Z,9.99
2019-04-28T20:55:48.717Z,9.98
2019-04-28T20:58:17.171Z,10.01
2019-04-28T21:00:45.494Z,9.99
2019-04-28T21:03:13.918Z,10.03
2019-04-28T21:05:42.272Z,9.96
2019-04-28T21:08:10.595Z,9.99
2019-04-28T21:10:39.184Z,9.92
2019-04-28T21:13:07.551Z,10.04
2019-04-28T21:15:36.264Z,10.12
2019-04-28T21:18:04.700Z,10.17
2019-04-28T21:20:33.321Z,10.12
2019-04-28T21:23:01.649Z,10.19
2019-04-28T21:25:30.410Z,10.07
2019-04-28T21:27:59.505Z,10.12
2019-04-28T21:30:27.806Z,10.07
2019-04-28T21:32:56.470Z,10.11
2019-04-28T21:35:25.021Z,10.07
2019-04-28T21:37:53.453Z,10.38
2019-04-28T21:40:22.429Z,10.04
2019-04-28T21:43:01.541Z,9.98
2019-04-28T21:45:46.242Z,9.97
2019-04-28T21:48:16.260Z,9.91
2019-04-28T21:50:45.248Z,9.90
2019-04-28T21:53:13.575Z,9.90
2019-04-28T21:55:41.879Z,9.84
2019-04-28T21:58:10.179Z,10.11
2019-04-28T22:00:50.747Z,9.94
2019-04-28T22:03:19.061Z,9.59
2019-04-28T22:05:47.351Z,9.46
2019-04-28T22:08:15.735Z,9.39
2019-04-28T22:10:44.047Z,9.32
2019-04-28T22:13:12.364Z,9.28
2019-04-28T22:15:40.692Z,9.26
2019-04-28T22:18:09.126Z,9.21
2019-04-28T22:20:37.807Z,9.20
2019-04-28T22:23:18.259Z,9.09
2019-04-28T22:25:40.818Z,9.01
2019-04-28T22:28:09.314Z,8.91
2019-04-28T22:30:37.675Z,8.88
2019-04-28T22:33:07.015Z,8.83
2019-04-28T22:35:36.390Z,8.82
2019-04-28T22:38:05.538Z,8.81
2019-04-28T22:40:33.834Z,8.66
2019-04-28T22:43:02.233Z,8.64
2019-04-28T22:45:30.524Z,8.58
2019-04-28T22:47:58.820Z,8.55
2019-04-28T22:50:35.499Z,8.48
2019-04-28T22:53:04.180Z,8.39
2019-04-28T22:55:34.270Z,8.32
2019-04-28T22:58:06.873Z,8.30
2019-04-28T23:00:36.917Z,8.33
2019-04-28T23:03:05.749Z,8.26
2019-04-28T23:05:34.042Z,8.19
2019-04-28T23:08:02.446Z,8.11
2019-04-28T23:10:30.747Z,8.13
2019-04-28T23:12:59.135Z,8.06
2019-04-28T23:15:27.806Z,7.94
2019-04-28T23:17:56.186Z,7.95
2019-04-28T23:20:26.195Z,7.88
2019-04-28T23:22:54.933Z,7.79
2019-04-28T23:25:23.246Z,7.85
2019-04-28T23:27:51.544Z,7.68
2019-04-28T23:30:40.780Z,7.61
2019-04-28T23:33:09.443Z,7.56
2019-04-28T23:35:37.767Z,7.61
2019-04-28T23:38:06.076Z,7.59
2019-04-28T23:40:36.044Z,7.61
2019-04-28T23:43:06.162Z,7.60
2019-04-28T23:45:34.890Z,7.71
2019-04-28T23:48:03.202Z,7.63
2019-04-28T23:50:33.139Z,7.64
2019-04-28T23:53:03.097Z,7.64
2019-04-28T23:55:31.392Z,7.60
2019-04-28T23:57:59.929Z,7.55
